createdAt,value
2019-03-05T00:02:10.678Z,2.93
2019-03-05T00:04:38.314Z,2.63
2019-03-05T00:07:05.977Z,3.23
2019-03-05T00:09:33.606Z,2.40
2019-03-05T00:12:01.272Z,2.13
2019-03-05T00:14:28.930Z,2.70
2019-03-05T00:16:56.584Z,2.80
2019-03-05T00:19:24.279Z,2.70
2019-03-05T00:21:51.923Z,2.83
2019-03-05T00:24:19.555Z,2.97
2019-03-05T00:26:47.194Z,2.73
2019-03-05T00:29:14.835Z,2.47
2019-03-05T00:31:42.497Z,2.77
2019-03-05T00:34:10.254Z,2.17
2019-03-05T00:36:37.881Z,2.70
2019-03-05T00:39:05.539Z,2.63
2019-03-05T00:41:33.184Z,2.03
2019-03-05T00:44:00.823Z,2.40
2019-03-05T00:46:28.491Z,2.03
2019-03-05T00:48:56.152Z,2.03
2019-03-05T00:51:25.151Z,2.47
2019-03-05T00:53:53.119Z,2.20
2019-03-05T00:56:20.763Z,2.60
2019-03-05T00:58:48.406Z,2.20
2019-03-05T01:01:16.422Z,1.90
2019-03-05T01:03:44.074Z,2.10
2019-03-05T01:06:11.745Z,1.70
2019-03-05T01:08:39.395Z,2.00
2019-03-05T01:11:07.026Z,2.00
2019-03-05T01:13:34.680Z,1.90
2019-03-05T01:16:02.694Z,1.90
2019-03-05T01:18:30.346Z,1.70
2019-03-05T01:20:57.965Z,1.30
2019-03-05T01:23:25.616Z,2.00
2019-03-05T01:25:53.255Z,1.67
2019-03-05T01:28:20.897Z,1.33
2019-03-05T01:30:53.914Z,1.93
2019-03-05T01:33:21.972Z,1.40
2019-03-05T01:35:53.881Z,1.50
2019-03-05T01:38:21.530Z,1.67
2019-03-05T01:40:53.404Z,1.70
2019-03-05T01:43:21.046Z,1.57
2019-03-05T01:45:48.873Z,1.60
2019-03-05T01:48:16.518Z,1.40
2019-03-05T01:50:44.154Z,1.47
2019-03-05T01:53:11.809Z,1.57
2019-03-05T01:55:39.459Z,1.77
2019-03-05T01:58:07.118Z,1.43
2019-03-05T02:00:34.756Z,1.53
2019-03-05T02:03:02.396Z,1.50
2019-03-05T02:05:30.026Z,1.53
2019-03-05T02:07:57.683Z,1.70
2019-03-05T02:10:25.610Z,1.60
2019-03-05T02:12:53.245Z,1.53
2019-03-05T02:15:20.930Z,1.30
2019-03-05T02:17:48.569Z,1.63
2019-03-05T02:20:16.211Z,1.80
2019-03-05T02:22:43.847Z,1.80
2019-03-05T02:25:11.482Z,1.90
2019-03-05T02:27:39.126Z,1.83
2019-03-05T02:30:06.820Z,1.70
2019-03-05T02:32:34.520Z,1.80
2019-03-05T02:35:02.164Z,1.70
2019-03-05T02:37:29.804Z,1.87
2019-03-05T02:39:57.678Z,2.17
2019-03-05T02:42:25.379Z,1.80
2019-03-05T02:44:53.111Z,2.00
2019-03-05T02:47:20.750Z,2.00
2019-03-05T02:49:48.384Z,2.53
2019-03-05T02:52:16.018Z,1.63
2019-03-05T02:54:43.685Z,1.93
2019-03-05T02:57:11.667Z,1.73
2019-03-05T02:59:39.327Z,1.90
2019-03-05T03:02:19.721Z,2.23
2019-03-05T03:04:49.974Z,1.87
2019-03-05T03:07:17.606Z,2.03
2019-03-05T03:09:45.245Z,1.90
2019-03-05T03:12:12.907Z,1.70
2019-03-05T03:14:40.624Z,2.07
2019-03-05T03:17:08.299Z,2.00
2019-03-05T03:19:35.943Z,1.40
2019-03-05T03:22:03.575Z,1.33
2019-03-05T03:24:31.296Z,1.30
2019-03-05T03:26:59.045Z,1.60
2019-03-05T03:29:26.688Z,1.50
2019-03-05T03:31:54.365Z,1.30
2019-03-05T03:34:22.091Z,1.50
2019-03-05T03:36:49.814Z,1.50
2019-03-05T03:39:17.456Z,1.37
2019-03-05T03:41:45.092Z,1.50
2019-03-05T03:44:12.734Z,1.50
2019-03-05T03:46:40.384Z,1.63
2019-03-05T03:49:08.082Z,1.20
2019-03-05T03:51:35.803Z,1.30
2019-03-05T03:54:03.439Z,1.57
2019-03-05T03:56:31.090Z,1.57
2019-03-05T03:58:58.742Z,1.57
2019-03-05T04:01:26.389Z,1.27
2019-03-05T04:03:54.040Z,1.30
2019-03-05T04:06:21.717Z,1.40
2019-03-05T04:08:49.363Z,1.27
2019-03-05T04:11:17.010Z,1.60
2019-03-05T04:13:44.658Z,1.70
2019-03-05T04:16:12.300Z,1.50
2019-03-05T04:18:39.971Z,1.30
2019-03-05T04:21:07.706Z,1.30
2019-03-05T04:23:35.332Z,1.30
2019-03-05T04:26:02.984Z,1.20
2019-03-05T04:28:30.636Z,1.30
2019-03-05T04:30:58.258Z,1.30
2019-03-05T04:33:25.899Z,1.33
2019-03-05T04:35:53.526Z,1.60
2019-03-05T04:38:21.173Z,1.23
2019-03-05T04:40:48.809Z,1.30
2019-03-05T04:43:16.458Z,1.30
2019-03-05T04:45:49.661Z,1.20
2019-03-05T04:48:17.303Z,1.40
2019-03-05T04:50:52.183Z,1.50
2019-03-05T04:53:19.819Z,1.20
2019-03-05T04:55:47.456Z,1.20
2019-03-05T04:58:15.090Z,1.30
2019-03-05T05:00:42.722Z,1.67
2019-03-05T05:03:10.358Z,1.20
2019-03-05T05:05:38.011Z,1.63
2019-03-05T05:08:05.657Z,1.10
2019-03-05T05:10:33.288Z,1.30
2019-03-05T05:13:00.949Z,1.40
2019-03-05T05:15:28.581Z,1.37
2019-03-05T05:17:56.218Z,1.23
2019-03-05T05:20:23.858Z,1.43
2019-03-05T05:22:51.499Z,1.37
2019-03-05T05:25:19.132Z,1.53
2019-03-05T05:27:46.769Z,1.30
2019-03-05T05:30:14.402Z,1.50
2019-03-05T05:32:42.050Z,1.20
2019-03-05T05:35:09.683Z,1.37
2019-03-05T05:37:37.328Z,1.17
2019-03-05T05:40:05.099Z,1.50
2019-03-05T05:42:32.882Z,1.13
2019-03-05T05:45:00.530Z,1.30
2019-03-05T05:47:28.228Z,0.90
2019-03-05T05:49:55.868Z,1.20
2019-03-05T05:52:23.499Z,1.10
2019-03-05T05:54:51.142Z,1.07
2019-03-05T05:57:18.770Z,1.00
2019-03-05T05:59:46.407Z,1.33
2019-03-05T06:02:14.048Z,1.10
2019-03-05T06:04:41.841Z,1.20
2019-03-05T06:07:09.599Z,1.00
2019-03-05T06:09:37.238Z,1.10
2019-03-05T06:12:04.870Z,0.83
2019-03-05T06:14:32.502Z,1.00
2019-03-05T06:17:00.144Z,1.00
2019-03-05T06:19:27.782Z,1.27
2019-03-05T06:21:55.425Z,0.93
2019-03-05T06:24:23.098Z,1.07
2019-03-05T06:26:50.792Z,1.20
2019-03-05T06:29:18.464Z,0.90
2019-03-05T06:31:46.098Z,1.00
2019-03-05T06:34:13.772Z,1.07
2019-03-05T06:36:41.414Z,1.43
2019-03-05T06:39:09.056Z,1.30
2019-03-05T06:41:36.688Z,1.27
2019-03-05T06:44:04.331Z,1.40
2019-03-05T06:46:31.976Z,1.40
2019-03-05T06:48:59.628Z,1.27
2019-03-05T06:51:27.263Z,1.40
2019-03-05T06:53:54.936Z,1.40
2019-03-05T06:56:23.585Z,1.20
2019-03-05T06:58:51.250Z,1.33
2019-03-05T07:01:18.912Z,1.37
2019-03-05T07:03:46.543Z,1.23
2019-03-05T07:06:14.187Z,1.03
2019-03-05T07:08:41.849Z,1.30
2019-03-05T07:11:09.487Z,1.50
2019-03-05T07:13:37.139Z,1.47
2019-03-05T07:16:04.775Z,1.40
2019-03-05T07:18:32.411Z,1.40
2019-03-05T07:21:00.057Z,1.43
2019-03-05T07:23:27.800Z,0.87
2019-03-05T07:25:55.453Z,1.43
2019-03-05T07:28:23.104Z,1.30
2019-03-05T07:30:50.750Z,0.97
2019-03-05T07:33:18.399Z,1.27
2019-03-05T07:35:46.319Z,1.20
2019-03-05T07:38:13.964Z,1.30
2019-03-05T07:40:41.598Z,1.60
2019-03-05T07:43:09.251Z,1.30
2019-03-05T07:45:36.897Z,1.50
2019-03-05T07:48:04.542Z,1.40
2019-03-05T07:50:32.201Z,1.20
2019-03-05T07:52:59.859Z,1.50
2019-03-05T07:55:27.746Z,1.30
2019-03-05T07:57:55.407Z,1.30
2019-03-05T08:00:23.069Z,1.67
2019-03-05T08:02:50.702Z,1.27
2019-03-05T08:05:18.360Z,1.27
2019-03-05T08:07:46.023Z,1.10
2019-03-05T08:12:39.849Z,0.93
2019-03-05T08:15:07.571Z,1.00
2019-03-05T08:17:35.243Z,1.10
2019-03-05T08:20:02.925Z,1.33
2019-03-05T08:22:30.560Z,1.20
2019-03-05T08:24:58.202Z,1.03
2019-03-05T08:27:25.876Z,1.27
2019-03-05T08:29:53.539Z,1.10
2019-03-05T08:32:21.272Z,1.23
2019-03-05T08:34:48.899Z,1.10
2019-03-05T08:37:16.572Z,1.10
2019-03-05T08:39:44.206Z,0.80
2019-03-05T08:42:11.993Z,1.10
2019-03-05T08:44:49.985Z,1.10
2019-03-05T08:47:08.998Z,1.10
2019-03-05T08:49:36.627Z,0.90
2019-03-05T08:52:04.269Z,0.87
2019-03-05T08:54:31.928Z,0.90
2019-03-05T08:56:59.557Z,1.00
2019-03-05T08:59:27.192Z,1.00
2019-03-05T09:01:54.831Z,1.20
2019-03-05T09:04:22.475Z,1.00
2019-03-05T09:06:50.109Z,1.00
2019-03-05T09:09:17.754Z,0.90
2019-03-05T09:11:45.414Z,0.87
2019-03-05T09:14:13.135Z,0.80
2019-03-05T09:16:40.779Z,0.80
2019-03-05T09:19:08.424Z,0.93
2019-03-05T09:21:36.076Z,0.90
2019-03-05T09:24:03.703Z,1.13
2019-03-05T09:26:31.363Z,0.87
2019-03-05T09:28:59.003Z,1.20
2019-03-05T09:31:26.706Z,0.70
2019-03-05T09:33:54.351Z,0.90
2019-03-05T09:36:22.016Z,0.80
2019-03-05T09:38:49.658Z,1.20
2019-03-05T09:41:17.377Z,1.27
2019-03-05T09:43:45.038Z,1.00
2019-03-05T09:46:12.681Z,1.47
2019-03-05T09:48:40.326Z,1.17
2019-03-05T09:51:08.007Z,0.70
2019-03-05T09:53:35.650Z,1.10
2019-03-05T09:56:05.956Z,1.17
2019-03-05T09:58:33.576Z,1.17
2019-03-05T10:01:01.294Z,1.30
2019-03-05T10:03:28.964Z,1.10
2019-03-05T10:05:56.622Z,1.20
2019-03-05T10:08:31.913Z,1.67
2019-03-05T10:10:53.598Z,1.00
2019-03-05T10:13:21.242Z,1.20
2019-03-05T10:15:49.029Z,1.10
2019-03-05T10:18:16.666Z,1.10
2019-03-05T10:20:44.299Z,1.17
2019-03-05T10:23:11.939Z,1.10
2019-03-05T10:25:39.595Z,1.50
2019-03-05T10:28:07.341Z,0.93
2019-03-05T10:30:35.038Z,1.20
2019-03-05T10:33:04.421Z,1.00
2019-03-05T10:35:32.053Z,1.30
2019-03-05T10:37:59.707Z,1.40
2019-03-05T10:40:27.392Z,0.97
2019-03-05T10:42:55.040Z,1.30
2019-03-05T10:45:22.682Z,1.40
2019-03-05T10:47:50.330Z,1.20
2019-03-05T10:50:17.982Z,1.07
2019-03-05T10:52:45.623Z,1.27
2019-03-05T10:55:13.272Z,1.33
2019-03-05T10:57:40.910Z,1.50
2019-03-05T11:00:08.567Z,1.20
2019-03-05T11:02:36.228Z,1.00
2019-03-05T11:05:03.868Z,1.13
2019-03-05T11:07:31.602Z,1.20
2019-03-05T11:09:59.463Z,1.10
2019-03-05T11:12:27.083Z,1.07
2019-03-05T11:14:54.724Z,1.43
2019-03-05T11:17:22.503Z,1.20
2019-03-05T11:19:50.146Z,1.30
2019-03-05T11:22:17.778Z,1.07
2019-03-05T11:24:45.510Z,1.33
2019-03-05T11:27:13.143Z,1.10
2019-03-05T11:29:40.786Z,1.40
2019-03-05T11:32:08.455Z,1.43
2019-03-05T11:34:36.231Z,1.30
2019-03-05T11:37:03.860Z,1.20
2019-03-05T11:39:31.594Z,0.97
2019-03-05T11:41:59.244Z,1.00
2019-03-05T11:44:26.878Z,1.30
2019-03-05T11:46:54.509Z,1.40
2019-03-05T11:49:22.158Z,1.00
2019-03-05T11:51:49.790Z,1.17
2019-03-05T11:54:17.429Z,1.27
2019-03-05T11:56:45.071Z,1.40
2019-03-05T11:59:12.824Z,1.47
2019-03-05T12:01:44.225Z,1.63
2019-03-05T12:04:12.120Z,1.30
2019-03-05T12:06:39.755Z,1.17
2019-03-05T12:09:07.409Z,0.93
2019-03-05T12:11:35.045Z,0.90
2019-03-05T12:14:02.696Z,1.20
2019-03-05T12:16:30.335Z,1.07
2019-03-05T12:18:57.982Z,0.97
2019-03-05T12:21:25.633Z,1.20
2019-03-05T12:23:53.276Z,0.83
2019-03-05T12:26:20.929Z,1.30
2019-03-05T12:28:48.603Z,1.57
2019-03-05T12:31:16.310Z,1.20
2019-03-05T12:33:43.947Z,1.53
2019-03-05T12:36:11.585Z,1.27
2019-03-05T12:38:39.243Z,1.03
2019-03-05T12:41:06.907Z,1.50
2019-03-05T12:43:34.594Z,1.30
2019-03-05T12:46:02.245Z,1.60
2019-03-05T12:48:39.543Z,1.30
2019-03-05T12:50:59.319Z,2.00
2019-03-05T12:53:26.986Z,1.80
2019-03-05T12:55:54.644Z,1.47
2019-03-05T12:58:22.993Z,1.10
2019-03-05T13:00:50.656Z,2.20
2019-03-05T13:03:18.291Z,1.90
2019-03-05T13:05:45.931Z,1.53
2019-03-05T13:08:13.566Z,1.70
2019-03-05T13:10:41.212Z,1.60
2019-03-05T13:13:10.470Z,1.20
2019-03-05T13:15:39.116Z,1.67
2019-03-05T13:18:06.777Z,0.80
2019-03-05T13:20:34.459Z,1.00
2019-03-05T13:23:08.774Z,0.80
2019-03-05T13:25:31.472Z,1.00
2019-03-05T13:28:02.056Z,1.10
2019-03-05T13:30:28.499Z,1.13
2019-03-05T13:32:59.038Z,0.70
2019-03-05T13:35:30.339Z,1.53
2019-03-05T13:37:55.020Z,0.70
2019-03-05T13:40:22.655Z,1.03
2019-03-05T13:42:50.290Z,0.80
2019-03-05T13:45:17.961Z,0.70
2019-03-05T13:47:45.663Z,0.80
2019-03-05T13:50:13.300Z,0.87
2019-03-05T13:52:40.958Z,1.00
2019-03-05T13:55:08.594Z,0.80
2019-03-05T13:57:36.235Z,1.30
2019-03-05T14:00:03.908Z,1.30
2019-03-05T14:02:31.565Z,1.07
2019-03-05T14:04:59.200Z,1.37
2019-03-05T14:07:26.844Z,1.30
2019-03-05T14:09:54.509Z,1.67
2019-03-05T14:12:22.324Z,2.40
2019-03-05T14:14:50.003Z,1.57
2019-03-05T14:17:23.044Z,1.63
2019-03-05T14:19:50.671Z,1.40
2019-03-05T14:22:18.562Z,1.50
2019-03-05T14:24:46.336Z,1.70
2019-03-05T14:27:14.102Z,1.70
2019-03-05T14:32:07.647Z,1.60
2019-03-05T14:37:01.234Z,1.80
2019-03-05T14:39:30.855Z,1.83
2019-03-05T14:41:58.569Z,1.80
2019-03-05T14:44:26.215Z,1.63
2019-03-05T14:46:53.855Z,1.90
2019-03-05T14:49:21.499Z,1.80
2019-03-05T14:51:49.222Z,2.10
2019-03-05T14:54:16.886Z,1.90
2019-03-05T14:56:44.655Z,2.10
2019-03-05T14:59:12.283Z,1.37
2019-03-05T15:01:39.940Z,1.70
2019-03-05T15:04:07.665Z,1.70
2019-03-05T15:06:35.418Z,1.00
2019-03-05T15:09:04.758Z,1.40
2019-03-05T15:11:32.511Z,1.27
2019-03-05T15:14:00.239Z,1.03
2019-03-05T15:16:28.016Z,1.60
2019-03-05T15:18:55.712Z,1.50
2019-03-05T15:21:23.580Z,1.20
2019-03-05T15:23:51.274Z,2.03
2019-03-05T15:26:18.928Z,1.60
2019-03-05T15:28:55.786Z,1.30
2019-03-05T15:31:15.960Z,1.60
2019-03-05T15:33:43.702Z,1.50
2019-03-05T15:36:23.226Z,1.50
2019-03-05T15:38:40.816Z,1.73
2019-03-05T15:41:08.638Z,1.97
2019-03-05T15:43:36.358Z,2.10
2019-03-05T15:46:04.186Z,1.70
2019-03-05T15:48:31.871Z,1.20
2019-03-05T15:50:59.554Z,1.60
2019-03-05T15:53:27.736Z,1.47
2019-03-05T15:55:56.174Z,1.43
2019-03-05T15:58:24.025Z,1.30
2019-03-05T16:00:51.662Z,1.27
2019-03-05T16:03:19.350Z,1.50
2019-03-05T16:05:47.117Z,1.30
2019-03-05T16:08:20.902Z,1.73
2019-03-05T16:10:50.402Z,1.70
2019-03-05T16:13:19.309Z,1.43
2019-03-05T16:15:47.870Z,1.50
2019-03-05T16:18:15.519Z,1.77
2019-03-05T16:20:43.275Z,2.27
2019-03-05T16:23:10.951Z,1.30
2019-03-05T16:25:38.586Z,1.50
2019-03-05T16:28:07.384Z,1.40
2019-03-05T16:30:50.554Z,1.50
2019-03-05T16:33:25.864Z,1.70
2019-03-05T16:35:58.823Z,1.63
2019-03-05T16:38:42.468Z,1.60
2019-03-05T16:41:17.049Z,1.50
2019-03-05T16:43:57.742Z,1.80
2019-03-05T16:46:32.154Z,1.80
2019-03-05T16:49:14.681Z,1.80
2019-03-05T16:51:49.685Z,1.60
2019-03-05T16:54:22.667Z,1.30
2019-03-05T16:56:59.680Z,1.57
2019-03-05T16:59:38.902Z,1.37
2019-03-05T17:02:17.532Z,1.57
2019-03-05T17:05:00.237Z,1.80
2019-03-05T17:07:38.969Z,1.60
2019-03-05T17:10:11.939Z,1.67
2019-03-05T17:12:39.577Z,2.07
2019-03-05T17:15:07.213Z,1.90
2019-03-05T17:17:34.972Z,1.70
2019-03-05T17:20:02.625Z,1.87
2019-03-05T17:22:30.247Z,2.00
2019-03-05T17:24:57.891Z,1.87
2019-03-05T17:27:25.597Z,1.53
2019-03-05T17:29:53.614Z,1.70
2019-03-05T17:32:21.243Z,1.80
2019-03-05T17:34:48.881Z,1.50
2019-03-05T17:37:16.518Z,1.63
2019-03-05T17:39:44.204Z,1.97
2019-03-05T17:42:11.835Z,1.70
2019-03-05T17:44:39.503Z,2.00
2019-03-05T17:47:07.142Z,1.83
2019-03-05T17:49:34.795Z,1.57
2019-03-05T17:52:02.431Z,1.80
2019-03-05T17:54:30.067Z,1.40
2019-03-05T17:56:57.718Z,1.07
2019-03-05T17:59:25.354Z,1.40
2019-03-05T18:01:53.056Z,1.50
2019-03-05T18:04:20.714Z,1.90
2019-03-05T18:06:48.350Z,1.30
2019-03-05T18:09:16.276Z,1.60
2019-03-05T18:11:43.919Z,1.90
2019-03-05T18:14:11.587Z,1.40
2019-03-05T18:16:39.220Z,1.40
2019-03-05T18:19:06.875Z,1.70
2019-03-05T18:21:34.502Z,2.00
2019-03-05T18:24:02.142Z,1.83
2019-03-05T18:26:29.916Z,1.73
2019-03-05T18:28:57.556Z,1.63
2019-03-05T18:31:25.191Z,2.00
2019-03-05T18:33:52.849Z,1.90
2019-03-05T18:36:20.655Z,2.17
2019-03-05T18:38:48.290Z,2.40
2019-03-05T18:41:15.926Z,1.57
2019-03-05T18:43:43.572Z,1.67
2019-03-05T18:46:11.224Z,2.10
2019-03-05T18:48:38.886Z,1.80
2019-03-05T18:51:06.533Z,1.80
2019-03-05T18:53:34.162Z,2.20
2019-03-05T18:56:01.802Z,2.10
2019-03-05T18:58:29.451Z,2.30
2019-03-05T19:00:57.091Z,2.37
2019-03-05T19:03:24.728Z,2.30
2019-03-05T19:05:52.371Z,2.30
2019-03-05T19:08:20.015Z,2.17
2019-03-05T19:10:47.666Z,2.13
2019-03-05T19:13:15.298Z,2.27
2019-03-05T19:15:43.238Z,2.30
2019-03-05T19:18:10.871Z,2.30
2019-03-05T19:20:38.506Z,2.00
2019-03-05T19:23:06.142Z,2.03
2019-03-05T19:25:33.776Z,2.10
2019-03-05T19:28:01.414Z,2.07
2019-03-05T19:30:29.055Z,2.57
2019-03-05T19:32:56.694Z,2.10
2019-03-05T19:35:24.334Z,2.83
2019-03-05T19:37:51.971Z,2.53
2019-03-05T19:40:19.606Z,2.67
2019-03-05T19:42:47.617Z,2.07
2019-03-05T19:45:15.288Z,2.37
2019-03-05T19:47:42.950Z,2.73
2019-03-05T19:50:10.626Z,2.70
2019-03-05T19:52:38.270Z,2.00
2019-03-05T19:55:05.915Z,2.50
2019-03-05T19:57:33.547Z,2.60
2019-03-05T20:00:01.367Z,3.50
2019-03-05T20:02:29.019Z,2.70
2019-03-05T20:04:56.654Z,2.57
2019-03-05T20:07:24.290Z,2.50
2019-03-05T20:09:52.315Z,2.30
2019-03-05T20:12:19.951Z,2.70
2019-03-05T20:14:47.630Z,2.23
2019-03-05T20:17:15.276Z,2.30
2019-03-05T20:19:42.956Z,1.97
2019-03-05T20:22:10.658Z,2.40
2019-03-05T20:24:38.367Z,2.13
2019-03-05T20:27:06.022Z,2.40
2019-03-05T20:29:33.653Z,1.90
2019-03-05T20:32:01.307Z,2.17
2019-03-05T20:34:28.946Z,2.33
2019-03-05T20:36:56.855Z,2.40
2019-03-05T20:39:24.495Z,2.07
2019-03-05T20:41:52.123Z,1.83
2019-03-05T20:44:19.754Z,2.40
2019-03-05T20:46:47.406Z,2.03
2019-03-05T20:49:15.038Z,2.37
2019-03-05T20:51:42.680Z,1.80
2019-03-05T20:54:10.364Z,1.80
2019-03-05T20:56:38.059Z,1.97
2019-03-05T20:59:05.689Z,2.33
2019-03-05T21:01:33.326Z,1.50
2019-03-05T21:04:00.966Z,1.90
2019-03-05T21:06:28.615Z,1.80
2019-03-05T21:08:56.259Z,2.07
2019-03-05T21:11:23.894Z,2.00
2019-03-05T21:13:51.532Z,2.13
2019-03-05T21:16:19.177Z,1.73
2019-03-05T21:18:47.092Z,2.00
2019-03-05T21:21:14.726Z,1.80
2019-03-05T21:23:42.371Z,1.70
2019-03-05T21:26:10.019Z,1.83
2019-03-05T21:28:37.684Z,1.80
2019-03-05T21:31:05.677Z,2.00
2019-03-05T21:33:33.312Z,1.93
2019-03-05T21:36:00.947Z,1.60
2019-03-05T21:38:28.688Z,1.50
2019-03-05T21:40:56.410Z,1.57
2019-03-05T21:43:24.066Z,2.40
2019-03-05T21:45:51.706Z,2.20
2019-03-05T21:48:19.370Z,2.07
2019-03-05T21:50:47.005Z,1.83
2019-03-05T21:53:14.646Z,1.80
2019-03-05T21:55:42.281Z,2.30
2019-03-05T21:58:10.306Z,2.00
2019-03-05T22:00:37.941Z,1.77
2019-03-05T22:03:05.575Z,2.20
2019-03-05T22:05:33.224Z,2.07
2019-03-05T22:08:00.858Z,2.40
2019-03-05T22:10:28.483Z,2.43
2019-03-05T22:12:56.117Z,2.80
2019-03-05T22:15:23.750Z,2.20
2019-03-05T22:17:51.383Z,2.77
2019-03-05T22:20:19.331Z,2.50
2019-03-05T22:22:46.972Z,2.50
2019-03-05T22:25:14.889Z,2.50
2019-03-05T22:27:42.522Z,2.90
2019-03-05T22:30:10.166Z,2.63
2019-03-05T22:32:37.824Z,2.30
2019-03-05T22:35:05.466Z,2.60
2019-03-05T22:37:33.107Z,2.53
2019-03-05T22:40:00.749Z,1.90
2019-03-05T22:42:28.436Z,2.33
2019-03-05T22:44:56.067Z,2.40
2019-03-05T22:47:23.703Z,2.40
2019-03-05T22:49:51.337Z,1.90
2019-03-05T22:52:19.151Z,1.60
2019-03-05T22:54:46.788Z,1.77
2019-03-05T22:57:14.429Z,2.27
2019-03-05T22:59:42.064Z,2.10
2019-03-05T23:02:09.905Z,2.10
2019-03-05T23:04:37.543Z,1.87
2019-03-05T23:07:05.967Z,2.03
2019-03-05T23:09:33.679Z,2.37
2019-03-05T23:12:01.311Z,2.10
2019-03-05T23:14:28.973Z,2.10
2019-03-05T23:16:56.754Z,2.53
2019-03-05T23:19:24.459Z,2.23
2019-03-05T23:21:52.094Z,2.37
2019-03-05T23:24:19.732Z,1.80
2019-03-05T23:26:47.457Z,2.27
2019-03-05T23:29:15.105Z,1.83
2019-03-05T23:31:42.746Z,1.90
2019-03-05T23:34:18.030Z,2.20
2019-03-05T23:36:39.730Z,2.20
2019-03-05T23:39:07.375Z,1.87
2019-03-05T23:41:35.010Z,2.03
2019-03-05T23:44:02.638Z,1.90
2019-03-05T23:46:30.282Z,2.20
2019-03-05T23:48:57.918Z,2.27
2019-03-05T23:51:25.565Z,2.00
2019-03-05T23:53:53.194Z,2.40
2019-03-05T23:56:20.837Z,2.37
2019-03-05T23:58:48.470Z,2.50
